sensor_id;sensor_type;location;lat;lon;timestamp;P1;durP1;ratioP1;P2;durP2;ratioP2
39324;SDS011;25037;49.488;9.900;2022-10-31T00:00:06;9.18;;;4.80;;
39324;SDS011;25037;49.488;9.900;2022-10-31T00:02:33;12.23;;;5.38;;
39324;SDS011;25037;49.488;9.900;2022-10-31T00:04:58;10.52;;;4.90;;
39324;SDS011;25037;49.488;9.900;2022-10-31T00:07:24;9.20;;;4.82;;
39324;SDS011;25037;49.488;9.900;2022-10-31T00:09:49;9.13;;;4.63;;
39324;SDS011;25037;49.488;9.900;2022-10-31T00:12:15;10.82;;;5.68;;
39324;SDS011;25037;49.488;9.900;2022-10-31T00:14:40;9.35;;;4.93;;
39324;SDS011;25037;49.488;9.900;2022-10-31T00:17:06;11.07;;;4.85;;
39324;SDS011;25037;49.488;9.900;2022-10-31T00:19:31;8.10;;;4.25;;
39324;SDS011;25037;49.488;9.900;2022-10-31T00:21:57;9.23;;;5.05;;
39324;SDS011;25037;49.488;9.900;2022-10-31T00:24:22;7.65;;;4.15;;
39324;SDS011;25037;49.488;9.900;2022-10-31T00:26:48;9.30;;;4.90;;
39324;SDS011;25037;49.488;9.900;2022-10-31T00:29:13;8.85;;;4.43;;
39324;SDS011;25037;49.488;9.900;2022-10-31T00:31:39;9.77;;;4.60;;
39324;SDS011;25037;49.488;9.900;2022-10-31T00:34:04;8.57;;;4.75;;
39324;SDS011;25037;49.488;9.900;2022-10-31T00:36:30;9.60;;;4.15;;
39324;SDS011;25037;49.488;9.900;2022-10-31T00:38:57;9.82;;;4.97;;
39324;SDS011;25037;49.488;9.900;2022-10-31T00:41:23;10.63;;;5.20;;
39324;SDS011;25037;49.488;9.900;2022-10-31T00:43:49;7.35;;;4.50;;
39324;SDS011;25037;49.488;9.900;2022-10-31T00:46:14;7.90;;;4.30;;
39324;SDS011;25037;49.488;9.900;2022-10-31T00:48:40;11.38;;;4.20;;
39324;SDS011;25037;49.488;9.900;2022-10-31T00:51:07;10.73;;;4.00;;
39324;SDS011;25037;49.488;9.900;2022-10-31T00:53:33;8.23;;;4.65;;
39324;SDS011;25037;49.488;9.900;2022-10-31T00:55:58;8.02;;;5.18;;
39324;SDS011;25037;49.488;9.900;2022-10-31T00:58:24;8.73;;;3.63;;
39324;SDS011;25037;49.488;9.900;2022-10-31T01:00:49;6.13;;;3.97;;
39324;SDS011;25037;49.488;9.900;2022-10-31T01:03:25;7.20;;;4.55;;
39324;SDS011;25037;49.488;9.900;2022-10-31T01:05:59;9.90;;;4.13;;
39324;SDS011;25037;49.488;9.900;2022-10-31T01:08:25;10.40;;;5.70;;
39324;SDS011;25037;49.488;9.900;2022-10-31T01:11:05;9.27;;;3.75;;
39324;SDS011;25037;49.488;9.900;2022-10-31T01:13:41;9.88;;;4.93;;
39324;SDS011;25037;49.488;9.900;2022-10-31T01:16:08;9.82;;;4.20;;
39324;SDS011;25037;49.488;9.900;2022-10-31T01:18:36;8.00;;;4.05;;
39324;SDS011;25037;49.488;9.900;2022-10-31T01:21:09;5.55;;;3.88;;
39324;SDS011;25037;49.488;9.900;2022-10-31T01:23:35;8.57;;;3.88;;
39324;SDS011;25037;49.488;9.900;2022-10-31T01:28:27;8.13;;;4.20;;
39324;SDS011;25037;49.488;9.900;2022-10-31T01:30:52;5.93;;;3.58;;
39324;SDS011;25037;49.488;9.900;2022-10-31T01:33:18;6.00;;;4.05;;
39324;SDS011;25037;49.488;9.900;2022-10-31T01:35:44;8.02;;;3.60;;
39324;SDS011;25037;49.488;9.900;2022-10-31T01:38:09;8.45;;;4.50;;
39324;SDS011;25037;49.488;9.900;2022-10-31T01:40:35;5.82;;;3.47;;
39324;SDS011;25037;49.488;9.900;2022-10-31T01:43:00;9.98;;;4.90;;
39324;SDS011;25037;49.488;9.900;2022-10-31T01:45:26;6.18;;;4.18;;
39324;SDS011;25037;49.488;9.900;2022-10-31T01:47:51;5.80;;;4.15;;
39324;SDS011;25037;49.488;9.900;2022-10-31T01:50:21;6.10;;;3.75;;
39324;SDS011;25037;49.488;9.900;2022-10-31T01:52:53;7.50;;;3.90;;
39324;SDS011;25037;49.488;9.900;2022-10-31T01:55:26;4.30;;;3.42;;
39324;SDS011;25037;49.488;9.900;2022-10-31T01:57:55;7.03;;;4.95;;
39324;SDS011;25037;49.488;9.900;2022-10-31T02:00:24;5.75;;;3.83;;
39324;SDS011;25037;49.488;9.900;2022-10-31T02:02:50;4.60;;;3.30;;
39324;SDS011;25037;49.488;9.900;2022-10-31T02:05:20;5.47;;;3.53;;
39324;SDS011;25037;49.488;9.900;2022-10-31T02:07:52;5.40;;;3.90;;
39324;SDS011;25037;49.488;9.900;2022-10-31T02:12:48;5.50;;;3.80;;
39324;SDS011;25037;49.488;9.900;2022-10-31T02:15:17;5.10;;;3.70;;
39324;SDS011;25037;49.488;9.900;2022-10-31T02:17:43;6.53;;;4.60;;
39324;SDS011;25037;49.488;9.900;2022-10-31T02:33:32;7.93;;;5.00;;
39324;SDS011;25037;49.488;9.900;2022-10-31T02:36:10;9.07;;;4.63;;
39324;SDS011;25037;49.488;9.900;2022-10-31T02:38:47;9.57;;;5.20;;
39324;SDS011;25037;49.488;9.900;2022-10-31T02:44:20;12.02;;;5.05;;
39324;SDS011;25037;49.488;9.900;2022-10-31T02:46:56;12.50;;;4.68;;
39324;SDS011;25037;49.488;9.900;2022-10-31T02:49:31;12.02;;;4.65;;
39324;SDS011;25037;49.488;9.900;2022-10-31T02:54:46;11.90;;;5.03;;
39324;SDS011;25037;49.488;9.900;2022-10-31T02:57:12;9.35;;;4.43;;
39324;SDS011;25037;49.488;9.900;2022-10-31T02:59:43;9.27;;;5.32;;
39324;SDS011;25037;49.488;9.900;2022-10-31T03:02:18;7.97;;;3.88;;
39324;SDS011;25037;49.488;9.900;2022-10-31T03:10:59;7.53;;;4.00;;
39324;SDS011;25037;49.488;9.900;2022-10-31T03:13:56;7.55;;;4.63;;
39324;SDS011;25037;49.488;9.900;2022-10-31T03:16:31;7.35;;;4.78;;
39324;SDS011;25037;49.488;9.900;2022-10-31T03:19:09;7.68;;;4.60;;
39324;SDS011;25037;49.488;9.900;2022-10-31T03:21:40;7.97;;;4.18;;
39324;SDS011;25037;49.488;9.900;2022-10-31T03:24:26;9.60;;;4.30;;
39324;SDS011;25037;49.488;9.900;2022-10-31T03:26:56;6.78;;;4.40;;
39324;SDS011;25037;49.488;9.900;2022-10-31T03:29:25;8.93;;;4.38;;
39324;SDS011;25037;49.488;9.900;2022-10-31T03:31:56;8.00;;;4.38;;
39324;SDS011;25037;49.488;9.900;2022-10-31T03:34:24;7.47;;;4.30;;
39324;SDS011;25037;49.488;9.900;2022-10-31T03:36:51;8.55;;;4.22;;
39324;SDS011;25037;49.488;9.900;2022-10-31T03:39:21;9.20;;;5.00;;
39324;SDS011;25037;49.488;9.900;2022-10-31T03:41:53;7.55;;;3.88;;
39324;SDS011;25037;49.488;9.900;2022-10-31T03:44:24;6.45;;;4.40;;
39324;SDS011;25037;49.488;9.900;2022-10-31T03:46:54;7.38;;;5.45;;
39324;SDS011;25037;49.488;9.900;2022-10-31T03:49:19;10.88;;;5.93;;
39324;SDS011;25037;49.488;9.900;2022-10-31T03:51:55;6.85;;;4.30;;
39324;SDS011;25037;49.488;9.900;2022-10-31T03:54:54;7.32;;;3.70;;
39324;SDS011;25037;49.488;9.900;2022-10-31T04:00:13;6.83;;;4.50;;
39324;SDS011;25037;49.488;9.900;2022-10-31T04:02:42;7.03;;;4.55;;
39324;SDS011;25037;49.488;9.900;2022-10-31T04:05:14;6.05;;;4.00;;
39324;SDS011;25037;49.488;9.900;2022-10-31T04:07:43;7.50;;;4.18;;
39324;SDS011;25037;49.488;9.900;2022-10-31T04:10:11;5.68;;;3.70;;
39324;SDS011;25037;49.488;9.900;2022-10-31T04:12:39;6.63;;;4.93;;
39324;SDS011;25037;49.488;9.900;2022-10-31T04:15:06;5.95;;;4.25;;
39324;SDS011;25037;49.488;9.900;2022-10-31T04:17:35;7.32;;;4.55;;
39324;SDS011;25037;49.488;9.900;2022-10-31T04:20:04;8.55;;;4.75;;
39324;SDS011;25037;49.488;9.900;2022-10-31T04:22:30;5.40;;;3.97;;
39324;SDS011;25037;49.488;9.900;2022-10-31T04:24:55;7.95;;;4.07;;
39324;SDS011;25037;49.488;9.900;2022-10-31T04:27:21;6.22;;;4.30;;
39324;SDS011;25037;49.488;9.900;2022-10-31T04:29:46;7.22;;;4.40;;
39324;SDS011;25037;49.488;9.900;2022-10-31T04:32:12;5.82;;;4.07;;
39324;SDS011;25037;49.488;9.900;2022-10-31T04:34:37;8.15;;;3.95;;
39324;SDS011;25037;49.488;9.900;2022-10-31T04:37:03;7.20;;;4.25;;
39324;SDS011;25037;49.488;9.900;2022-10-31T04:39:28;5.50;;;3.70;;
39324;SDS011;25037;49.488;9.900;2022-10-31T04:41:54;6.22;;;3.80;;
39324;SDS011;25037;49.488;9.900;2022-10-31T04:44:19;5.38;;;3.70;;
39324;SDS011;25037;49.488;9.900;2022-10-31T04:46:45;7.07;;;3.90;;
39324;SDS011;25037;49.488;9.900;2022-10-31T04:49:11;6.68;;;3.70;;
39324;SDS011;25037;49.488;9.900;2022-10-31T04:51:36;8.85;;;3.97;;
39324;SDS011;25037;49.488;9.900;2022-10-31T04:54:02;7.78;;;4.65;;
39324;SDS011;25037;49.488;9.900;2022-10-31T04:56:27;5.20;;;3.53;;
39324;SDS011;25037;49.488;9.900;2022-10-31T04:58:53;6.30;;;4.18;;
39324;SDS011;25037;49.488;9.900;2022-10-31T05:01:18;6.63;;;3.78;;
39324;SDS011;25037;49.488;9.900;2022-10-31T05:03:44;6.47;;;3.80;;
39324;SDS011;25037;49.488;9.900;2022-10-31T05:06:09;8.00;;;3.97;;
39324;SDS011;25037;49.488;9.900;2022-10-31T05:08:35;9.98;;;4.35;;
39324;SDS011;25037;49.488;9.900;2022-10-31T05:11:01;12.57;;;5.45;;
39324;SDS011;25037;49.488;9.900;2022-10-31T05:13:27;8.40;;;4.30;;
39324;SDS011;25037;49.488;9.900;2022-10-31T05:15:53;7.75;;;4.03;;
39324;SDS011;25037;49.488;9.900;2022-10-31T05:18:19;8.85;;;4.50;;
39324;SDS011;25037;49.488;9.900;2022-10-31T05:20:44;9.73;;;5.05;;
39324;SDS011;25037;49.488;9.900;2022-10-31T05:23:10;8.68;;;4.38;;
39324;SDS011;25037;49.488;9.900;2022-10-31T05:25:35;4.65;;;3.33;;
39324;SDS011;25037;49.488;9.900;2022-10-31T05:28:01;6.97;;;3.92;;
39324;SDS011;25037;49.488;9.900;2022-10-31T05:30:28;7.88;;;4.38;;
39324;SDS011;25037;49.488;9.900;2022-10-31T05:32:55;8.93;;;4.78;;
39324;SDS011;25037;49.488;9.900;2022-10-31T05:35:22;13.35;;;5.20;;
39324;SDS011;25037;49.488;9.900;2022-10-31T05:37:50;7.95;;;4.75;;
39324;SDS011;25037;49.488;9.900;2022-10-31T05:40:16;10.48;;;5.97;;
39324;SDS011;25037;49.488;9.900;2022-10-31T05:42:44;9.30;;;5.28;;
39324;SDS011;25037;49.488;9.900;2022-10-31T05:45:11;10.90;;;5.53;;
39324;SDS011;25037;49.488;9.900;2022-10-31T05:47:39;10.27;;;5.32;;
39324;SDS011;25037;49.488;9.900;2022-10-31T05:50:05;16.95;;;6.18;;
39324;SDS011;25037;49.488;9.900;2022-10-31T05:52:31;9.55;;;6.47;;
39324;SDS011;25037;49.488;9.900;2022-10-31T05:54:57;12.75;;;6.50;;
39324;SDS011;25037;49.488;9.900;2022-10-31T05:57:22;11.73;;;6.63;;
39324;SDS011;25037;49.488;9.900;2022-10-31T05:59:48;16.65;;;8.07;;
39324;SDS011;25037;49.488;9.900;2022-10-31T06:02:14;11.90;;;8.15;;
39324;SDS011;25037;49.488;9.900;2022-10-31T06:04:39;12.27;;;7.15;;
39324;SDS011;25037;49.488;9.900;2022-10-31T06:07:05;16.20;;;6.60;;
39324;SDS011;25037;49.488;9.900;2022-10-31T06:09:30;12.55;;;6.60;;
39324;SDS011;25037;49.488;9.900;2022-10-31T06:11:56;12.55;;;7.32;;
39324;SDS011;25037;49.488;9.900;2022-10-31T06:14:21;12.32;;;6.65;;
39324;SDS011;25037;49.488;9.900;2022-10-31T06:16:46;15.00;;;7.60;;
39324;SDS011;25037;49.488;9.900;2022-10-31T06:19:12;17.77;;;6.47;;
39324;SDS011;25037;49.488;9.900;2022-10-31T06:21:37;20.73;;;7.70;;
39324;SDS011;25037;49.488;9.900;2022-10-31T06:24:03;23.05;;;7.63;;
39324;SDS011;25037;49.488;9.900;2022-10-31T06:26:29;15.18;;;7.15;;
39324;SDS011;25037;49.488;9.900;2022-10-31T06:28:55;21.08;;;6.50;;
39324;SDS011;25037;49.488;9.900;2022-10-31T06:31:20;17.70;;;6.20;;
39324;SDS011;25037;49.488;9.900;2022-10-31T06:33:46;28.70;;;7.25;;
39324;SDS011;25037;49.488;9.900;2022-10-31T06:36:11;19.60;;;6.70;;
39324;SDS011;25037;49.488;9.900;2022-10-31T06:38:36;29.02;;;6.47;;
39324;SDS011;25037;49.488;9.900;2022-10-31T06:41:05;19.27;;;6.75;;
39324;SDS011;25037;49.488;9.900;2022-10-31T06:43:31;24.88;;;7.43;;
39324;SDS011;25037;49.488;9.900;2022-10-31T06:45:57;18.17;;;8.05;;
39324;SDS011;25037;49.488;9.900;2022-10-31T06:48:26;22.45;;;8.52;;
39324;SDS011;25037;49.488;9.900;2022-10-31T06:50:52;20.65;;;7.72;;
39324;SDS011;25037;49.488;9.900;2022-10-31T06:53:17;18.20;;;7.72;;
39324;SDS011;25037;49.488;9.900;2022-10-31T06:55:43;24.30;;;9.20;;
39324;SDS011;25037;49.488;9.900;2022-10-31T06:58:09;22.17;;;9.95;;
39324;SDS011;25037;49.488;9.900;2022-10-31T07:00:35;14.85;;;8.00;;
39324;SDS011;25037;49.488;9.900;2022-10-31T07:03:05;15.65;;;9.60;;
39324;SDS011;25037;49.488;9.900;2022-10-31T07:05:34;12.70;;;7.60;;
39324;SDS011;25037;49.488;9.900;2022-10-31T07:08:00;11.77;;;6.10;;
39324;SDS011;25037;49.488;9.900;2022-10-31T07:10:28;9.70;;;6.07;;
39324;SDS011;25037;49.488;9.900;2022-10-31T07:12:55;8.27;;;5.68;;
39324;SDS011;25037;49.488;9.900;2022-10-31T07:15:22;8.80;;;5.50;;
39324;SDS011;25037;49.488;9.900;2022-10-31T07:17:49;6.68;;;5.35;;
39324;SDS011;25037;49.488;9.900;2022-10-31T07:20:15;7.35;;;5.97;;
39324;SDS011;25037;49.488;9.900;2022-10-31T07:22:41;11.00;;;7.80;;
39324;SDS011;25037;49.488;9.900;2022-10-31T07:25:06;9.32;;;8.20;;
39324;SDS011;25037;49.488;9.900;2022-10-31T07:27:36;13.48;;;9.52;;
39324;SDS011;25037;49.488;9.900;2022-10-31T07:30:02;11.88;;;9.57;;
39324;SDS011;25037;49.488;9.900;2022-10-31T07:32:36;11.38;;;9.70;;
39324;SDS011;25037;49.488;9.900;2022-10-31T07:35:08;9.05;;;7.75;;
39324;SDS011;25037;49.488;9.900;2022-10-31T07:37:35;8.20;;;7.32;;
39324;SDS011;25037;49.488;9.900;2022-10-31T07:40:01;7.05;;;6.32;;
39324;SDS011;25037;49.488;9.900;2022-10-31T07:43:04;6.63;;;5.50;;
39324;SDS011;25037;49.488;9.900;2022-10-31T07:45:22;5.53;;;4.15;;
39324;SDS011;25037;49.488;9.900;2022-10-31T07:47:49;5.35;;;3.97;;
39324;SDS011;25037;49.488;9.900;2022-10-31T07:50:18;5.90;;;4.20;;
39324;SDS011;25037;49.488;9.900;2022-10-31T07:52:57;6.15;;;4.70;;
39324;SDS011;25037;49.488;9.900;2022-10-31T07:55:27;5.20;;;3.97;;
39324;SDS011;25037;49.488;9.900;2022-10-31T07:57:57;4.90;;;3.42;;
39324;SDS011;25037;49.488;9.900;2022-10-31T08:00:26;5.67;;;4.30;;
39324;SDS011;25037;49.488;9.900;2022-10-31T08:05:28;6.22;;;4.43;;
39324;SDS011;25037;49.488;9.900;2022-10-31T08:07:54;5.82;;;3.75;;
39324;SDS011;25037;49.488;9.900;2022-10-31T08:10:20;6.13;;;3.90;;
39324;SDS011;25037;49.488;9.900;2022-10-31T08:12:46;7.97;;;4.25;;
39324;SDS011;25037;49.488;9.900;2022-10-31T08:15:12;6.20;;;4.40;;
39324;SDS011;25037;49.488;9.900;2022-10-31T08:17:38;9.18;;;4.43;;
39324;SDS011;25037;49.488;9.900;2022-10-31T08:20:04;7.32;;;4.82;;
39324;SDS011;25037;49.488;9.900;2022-10-31T08:22:30;6.15;;;4.15;;
39324;SDS011;25037;49.488;9.900;2022-10-31T08:24:56;6.40;;;4.60;;
39324;SDS011;25037;49.488;9.900;2022-10-31T08:27:22;8.18;;;4.53;;
39324;SDS011;25037;49.488;9.900;2022-10-31T08:29:47;8.55;;;5.47;;
39324;SDS011;25037;49.488;9.900;2022-10-31T08:32:13;10.68;;;4.53;;
39324;SDS011;25037;49.488;9.900;2022-10-31T08:34:38;8.63;;;5.05;;
39324;SDS011;25037;49.488;9.900;2022-10-31T08:37:04;6.95;;;4.60;;
39324;SDS011;25037;49.488;9.900;2022-10-31T08:39:29;7.00;;;4.07;;
39324;SDS011;25037;49.488;9.900;2022-10-31T08:41:55;7.30;;;4.72;;
39324;SDS011;25037;49.488;9.900;2022-10-31T08:44:20;7.97;;;4.63;;
39324;SDS011;25037;49.488;9.900;2022-10-31T08:46:46;9.32;;;5.00;;
39324;SDS011;25037;49.488;9.900;2022-10-31T08:49:12;8.75;;;4.90;;
39324;SDS011;25037;49.488;9.900;2022-10-31T08:51:37;9.50;;;4.72;;
39324;SDS011;25037;49.488;9.900;2022-10-31T08:54:03;6.72;;;4.45;;
39324;SDS011;25037;49.488;9.900;2022-10-31T08:56:28;8.55;;;4.75;;
39324;SDS011;25037;49.488;9.900;2022-10-31T08:58:54;8.45;;;4.50;;
39324;SDS011;25037;49.488;9.900;2022-10-31T09:01:20;7.32;;;4.18;;
39324;SDS011;25037;49.488;9.900;2022-10-31T09:03:45;8.57;;;4.35;;
39324;SDS011;25037;49.488;9.900;2022-10-31T09:06:11;8.93;;;4.50;;
39324;SDS011;25037;49.488;9.900;2022-10-31T09:08:36;6.53;;;4.32;;
39324;SDS011;25037;49.488;9.900;2022-10-31T09:11:02;8.45;;;4.82;;
39324;SDS011;25037;49.488;9.900;2022-10-31T09:13:29;8.27;;;4.30;;
39324;SDS011;25037;49.488;9.900;2022-10-31T09:15:55;8.85;;;4.45;;
39324;SDS011;25037;49.488;9.900;2022-10-31T09:18:23;7.47;;;3.88;;
39324;SDS011;25037;49.488;9.900;2022-10-31T09:20:50;6.95;;;5.07;;
39324;SDS011;25037;49.488;9.900;2022-10-31T09:23:20;7.07;;;4.85;;
39324;SDS011;25037;49.488;9.900;2022-10-31T09:25:47;8.07;;;4.40;;
39324;SDS011;25037;49.488;9.900;2022-10-31T09:28:15;9.05;;;4.80;;
39324;SDS011;25037;49.488;9.900;2022-10-31T09:30:41;8.18;;;4.40;;
39324;SDS011;25037;49.488;9.900;2022-10-31T09:33:11;10.00;;;4.70;;
39324;SDS011;25037;49.488;9.900;2022-10-31T09:35:37;8.73;;;4.95;;
39324;SDS011;25037;49.488;9.900;2022-10-31T09:38:04;8.57;;;5.10;;
39324;SDS011;25037;49.488;9.900;2022-10-31T09:40:45;8.02;;;4.43;;
39324;SDS011;25037;49.488;9.900;2022-10-31T09:51:21;8.93;;;4.78;;
39324;SDS011;25037;49.488;9.900;2022-10-31T09:53:59;13.98;;;6.00;;
39324;SDS011;25037;49.488;9.900;2022-10-31T09:56:26;9.52;;;5.03;;
39324;SDS011;25037;49.488;9.900;2022-10-31T09:58:53;9.95;;;5.03;;
39324;SDS011;25037;49.488;9.900;2022-10-31T10:01:28;9.77;;;5.40;;
39324;SDS011;25037;49.488;9.900;2022-10-31T10:04:09;11.65;;;5.80;;
39324;SDS011;25037;49.488;9.900;2022-10-31T10:06:55;13.07;;;5.30;;
39324;SDS011;25037;49.488;9.900;2022-10-31T10:09:22;9.02;;;4.85;;
39324;SDS011;25037;49.488;9.900;2022-10-31T10:30:37;6.57;;;3.90;;
39324;SDS011;25037;49.488;9.900;2022-10-31T10:33:11;5.68;;;3.90;;
39324;SDS011;25037;49.488;9.900;2022-10-31T10:35:42;7.15;;;3.90;;
39324;SDS011;25037;49.488;9.900;2022-10-31T10:38:15;7.90;;;4.25;;
39324;SDS011;25037;49.488;9.900;2022-10-31T10:40:51;9.00;;;4.15;;
39324;SDS011;25037;49.488;9.900;2022-10-31T10:45:50;8.52;;;4.82;;
39324;SDS011;25037;49.488;9.900;2022-10-31T10:49:06;6.65;;;4.65;;
39324;SDS011;25037;49.488;9.900;2022-10-31T10:56:56;5.78;;;4.82;;
39324;SDS011;25037;49.488;9.900;2022-10-31T10:59:28;8.48;;;5.50;;
39324;SDS011;25037;49.488;9.900;2022-10-31T11:01:55;7.45;;;5.68;;
39324;SDS011;25037;49.488;9.900;2022-10-31T11:04:31;9.80;;;5.40;;
39324;SDS011;25037;49.488;9.900;2022-10-31T11:06:59;6.32;;;5.57;;
39324;SDS011;25037;49.488;9.900;2022-10-31T11:09:25;8.40;;;6.05;;
39324;SDS011;25037;49.488;9.900;2022-10-31T11:11:51;7.90;;;5.85;;
39324;SDS011;25037;49.488;9.900;2022-10-31T11:14:17;5.88;;;4.45;;
39324;SDS011;25037;49.488;9.900;2022-10-31T11:16:44;7.68;;;6.30;;
39324;SDS011;25037;49.488;9.900;2022-10-31T11:21:45;6.93;;;5.50;;
39324;SDS011;25037;49.488;9.900;2022-10-31T11:24:13;6.82;;;5.43;;
39324;SDS011;25037;49.488;9.900;2022-10-31T11:26:42;7.18;;;6.35;;
39324;SDS011;25037;49.488;9.900;2022-10-31T11:29:13;7.35;;;6.13;;
39324;SDS011;25037;49.488;9.900;2022-10-31T11:31:39;10.18;;;6.95;;
39324;SDS011;25037;49.488;9.900;2022-10-31T11:34:06;8.10;;;6.25;;
39324;SDS011;25037;49.488;9.900;2022-10-31T11:36:41;8.27;;;6.32;;
39324;SDS011;25037;49.488;9.900;2022-10-31T11:39:15;11.02;;;7.88;;
39324;SDS011;25037;49.488;9.900;2022-10-31T11:41:46;9.82;;;7.18;;
39324;SDS011;25037;49.488;9.900;2022-10-31T11:44:24;8.90;;;7.38;;
39324;SDS011;25037;49.488;9.900;2022-10-31T11:46:56;9.85;;;7.25;;
39324;SDS011;25037;49.488;9.900;2022-10-31T11:49:40;8.68;;;6.82;;
39324;SDS011;25037;49.488;9.900;2022-10-31T11:52:12;11.85;;;7.95;;
39324;SDS011;25037;49.488;9.900;2022-10-31T11:54:49;10.88;;;8.07;;
39324;SDS011;25037;49.488;9.900;2022-10-31T11:59:56;11.10;;;8.07;;
39324;SDS011;25037;49.488;9.900;2022-10-31T12:02:23;13.52;;;10.27;;
39324;SDS011;25037;49.488;9.900;2022-10-31T12:04:58;10.15;;;8.20;;
39324;SDS011;25037;49.488;9.900;2022-10-31T12:09:58;11.48;;;9.35;;
39324;SDS011;25037;49.488;9.900;2022-10-31T12:17:57;13.90;;;9.88;;
39324;SDS011;25037;49.488;9.900;2022-10-31T12:20:32;14.90;;;10.52;;
39324;SDS011;25037;49.488;9.900;2022-10-31T12:38:30;19.05;;;12.20;;
39324;SDS011;25037;49.488;9.900;2022-10-31T12:41:16;16.02;;;11.25;;
39324;SDS011;25037;49.488;9.900;2022-10-31T12:43:55;14.65;;;11.77;;
39324;SDS011;25037;49.488;9.900;2022-10-31T12:46:31;15.93;;;12.18;;
39324;SDS011;25037;49.488;9.900;2022-10-31T12:51:56;12.55;;;9.73;;
39324;SDS011;25037;49.488;9.900;2022-10-31T12:59:47;12.48;;;10.35;;
39324;SDS011;25037;49.488;9.900;2022-10-31T13:02:19;17.23;;;11.32;;
39324;SDS011;25037;49.488;9.900;2022-10-31T13:10:24;16.00;;;11.30;;
39324;SDS011;25037;49.488;9.900;2022-10-31T13:12:56;17.17;;;10.85;;
39324;SDS011;25037;49.488;9.900;2022-10-31T13:15:30;15.80;;;12.32;;
39324;SDS011;25037;49.488;9.900;2022-10-31T13:18:01;17.10;;;12.27;;
39324;SDS011;25037;49.488;9.900;2022-10-31T13:20:32;14.57;;;11.50;;
39324;SDS011;25037;49.488;9.900;2022-10-31T13:23:12;17.42;;;13.05;;
39324;SDS011;25037;49.488;9.900;2022-10-31T13:25:53;15.57;;;12.77;;
39324;SDS011;25037;49.488;9.900;2022-10-31T13:28:40;17.02;;;12.95;;
39324;SDS011;25037;49.488;9.900;2022-10-31T13:31:24;15.32;;;12.93;;
39324;SDS011;25037;49.488;9.900;2022-10-31T13:33:55;18.25;;;12.43;;
39324;SDS011;25037;49.488;9.900;2022-10-31T13:36:38;14.02;;;12.10;;
39324;SDS011;25037;49.488;9.900;2022-10-31T13:41:54;14.52;;;12.75;;
39324;SDS011;25037;49.488;9.900;2022-10-31T13:44:52;14.20;;;12.57;;
39324;SDS011;25037;49.488;9.900;2022-10-31T13:47:28;16.10;;;12.98;;
39324;SDS011;25037;49.488;9.900;2022-10-31T13:52:44;18.83;;;13.52;;
39324;SDS011;25037;49.488;9.900;2022-10-31T13:58:20;16.15;;;13.07;;
39324;SDS011;25037;49.488;9.900;2022-10-31T14:01:14;16.20;;;13.15;;
39324;SDS011;25037;49.488;9.900;2022-10-31T14:03:42;15.38;;;12.52;;
39324;SDS011;25037;49.488;9.900;2022-10-31T14:06:10;14.27;;;11.85;;
39324;SDS011;25037;49.488;9.900;2022-10-31T14:08:38;16.02;;;12.70;;
39324;SDS011;25037;49.488;9.900;2022-10-31T14:11:07;14.95;;;12.38;;
39324;SDS011;25037;49.488;9.900;2022-10-31T14:13:42;14.65;;;12.85;;
39324;SDS011;25037;49.488;9.900;2022-10-31T14:16:17;15.18;;;12.68;;
39324;SDS011;25037;49.488;9.900;2022-10-31T14:18:47;14.65;;;12.23;;
39324;SDS011;25037;49.488;9.900;2022-10-31T14:23:48;12.73;;;11.18;;
39324;SDS011;25037;49.488;9.900;2022-10-31T14:26:29;15.55;;;12.35;;
39324;SDS011;25037;49.488;9.900;2022-10-31T14:28:56;17.08;;;10.95;;
39324;SDS011;25037;49.488;9.900;2022-10-31T14:31:43;13.00;;;11.45;;
39324;SDS011;25037;49.488;9.900;2022-10-31T14:36:59;14.98;;;12.30;;
39324;SDS011;25037;49.488;9.900;2022-10-31T14:47:57;24.92;;;18.52;;
39324;SDS011;25037;49.488;9.900;2022-10-31T14:53:03;26.45;;;20.55;;
39324;SDS011;25037;49.488;9.900;2022-10-31T14:55:32;28.10;;;21.30;;
39324;SDS011;25037;49.488;9.900;2022-10-31T14:58:02;30.98;;;23.00;;
39324;SDS011;25037;49.488;9.900;2022-10-31T15:00:31;32.33;;;24.02;;
39324;SDS011;25037;49.488;9.900;2022-10-31T15:05:27;30.55;;;24.25;;
39324;SDS011;25037;49.488;9.900;2022-10-31T15:07:53;30.20;;;23.77;;
39324;SDS011;25037;49.488;9.900;2022-10-31T15:13:08;36.80;;;26.15;;
39324;SDS011;25037;49.488;9.900;2022-10-31T15:15:44;30.58;;;23.55;;
39324;SDS011;25037;49.488;9.900;2022-10-31T15:18:14;27.40;;;20.75;;
39324;SDS011;25037;49.488;9.900;2022-10-31T15:20:43;24.27;;;19.73;;
39324;SDS011;25037;49.488;9.900;2022-10-31T15:23:11;26.20;;;19.67;;
39324;SDS011;25037;49.488;9.900;2022-10-31T15:25:41;28.13;;;22.23;;
39324;SDS011;25037;49.488;9.900;2022-10-31T15:28:22;29.20;;;22.75;;
39324;SDS011;25037;49.488;9.900;2022-10-31T15:30:49;31.73;;;23.15;;
39324;SDS011;25037;49.488;9.900;2022-10-31T15:33:24;34.33;;;24.50;;
39324;SDS011;25037;49.488;9.900;2022-10-31T15:35:55;31.00;;;25.27;;
39324;SDS011;25037;49.488;9.900;2022-10-31T15:38:23;32.25;;;25.48;;
39324;SDS011;25037;49.488;9.900;2022-10-31T15:40:53;34.45;;;25.67;;
39324;SDS011;25037;49.488;9.900;2022-10-31T15:43:19;37.33;;;26.38;;
39324;SDS011;25037;49.488;9.900;2022-10-31T15:45:45;39.60;;;27.95;;
39324;SDS011;25037;49.488;9.900;2022-10-31T15:48:13;39.80;;;29.40;;
39324;SDS011;25037;49.488;9.900;2022-10-31T15:50:46;35.97;;;27.33;;
39324;SDS011;25037;49.488;9.900;2022-10-31T15:55:57;35.80;;;26.73;;
39324;SDS011;25037;49.488;9.900;2022-10-31T15:58:25;34.10;;;26.63;;
39324;SDS011;25037;49.488;9.900;2022-10-31T16:01:00;33.60;;;25.33;;
39324;SDS011;25037;49.488;9.900;2022-10-31T16:03:28;33.03;;;25.13;;
39324;SDS011;25037;49.488;9.900;2022-10-31T16:05:56;38.15;;;27.63;;
39324;SDS011;25037;49.488;9.900;2022-10-31T16:10:57;29.88;;;22.90;;
39324;SDS011;25037;49.488;9.900;2022-10-31T16:13:28;23.40;;;19.08;;
39324;SDS011;25037;49.488;9.900;2022-10-31T16:16:03;21.77;;;18.10;;
39324;SDS011;25037;49.488;9.900;2022-10-31T16:18:36;28.42;;;20.38;;
39324;SDS011;25037;49.488;9.900;2022-10-31T16:21:04;31.08;;;24.30;;
39324;SDS011;25037;49.488;9.900;2022-10-31T16:23:30;35.28;;;25.45;;
39324;SDS011;25037;49.488;9.900;2022-10-31T16:25:55;29.17;;;22.38;;
39324;SDS011;25037;49.488;9.900;2022-10-31T16:28:23;29.40;;;22.23;;
39324;SDS011;25037;49.488;9.900;2022-10-31T16:30:51;28.30;;;21.77;;
39324;SDS011;25037;49.488;9.900;2022-10-31T16:35:58;28.88;;;23.00;;
39324;SDS011;25037;49.488;9.900;2022-10-31T16:38:25;29.30;;;22.48;;
39324;SDS011;25037;49.488;9.900;2022-10-31T16:40:51;32.28;;;24.88;;
39324;SDS011;25037;49.488;9.900;2022-10-31T16:43:18;36.28;;;27.70;;
39324;SDS011;25037;49.488;9.900;2022-10-31T16:45:51;36.38;;;28.23;;
39324;SDS011;25037;49.488;9.900;2022-10-31T16:48:18;33.63;;;23.90;;
39324;SDS011;25037;49.488;9.900;2022-10-31T16:50:46;37.80;;;28.23;;
39324;SDS011;25037;49.488;9.900;2022-10-31T16:53:13;33.72;;;24.23;;
39324;SDS011;25037;49.488;9.900;2022-10-31T16:55:45;32.10;;;22.10;;
39324;SDS011;25037;49.488;9.900;2022-10-31T16:58:26;28.67;;;22.08;;
39324;SDS011;25037;49.488;9.900;2022-10-31T17:00:54;33.17;;;25.02;;
39324;SDS011;25037;49.488;9.900;2022-10-31T17:03:20;35.65;;;25.98;;
39324;SDS011;25037;49.488;9.900;2022-10-31T17:05:45;39.88;;;25.80;;
39324;SDS011;25037;49.488;9.900;2022-10-31T17:08:11;32.80;;;24.38;;
39324;SDS011;25037;49.488;9.900;2022-10-31T17:10:37;31.48;;;22.05;;
39324;SDS011;25037;49.488;9.900;2022-10-31T17:13:05;28.42;;;21.48;;
39324;SDS011;25037;49.488;9.900;2022-10-31T17:15:37;21.83;;;17.65;;
39324;SDS011;25037;49.488;9.900;2022-10-31T17:18:06;22.88;;;18.17;;
39324;SDS011;25037;49.488;9.900;2022-10-31T17:20:31;22.48;;;18.85;;